createdAt,value
2022-10-20T00:01:25.579Z,6.38
2022-10-20T00:04:35.287Z,6.38
2022-10-20T00:07:40.534Z,6.40
2022-10-20T00:10:45.785Z,6.05
2022-10-20T00:13:51.949Z,6.03
2022-10-20T00:16:56.987Z,6.15
2022-10-20T00:20:04.914Z,6.00
2022-10-20T00:23:09.927Z,6.30
2022-10-20T00:26:16.047Z,5.65
2022-10-20T00:29:23.067Z,5.82
2022-10-20T00:32:29.859Z,6.28
2022-10-20T00:35:40.796Z,5.75
2022-10-20T00:38:50.118Z,4.95
2022-10-20T00:41:56.192Z,5.72
2022-10-20T00:45:02.606Z,5.18
2022-10-20T00:48:18.718Z,5.22
2022-10-20T00:51:34.981Z,4.43
2022-10-20T00:54:43.105Z,4.10
2022-10-20T00:57:51.859Z,3.90
2022-10-20T02:41:50.886Z,1.50
2022-10-20T02:44:55.914Z,1.33
2022-10-20T02:48:02.529Z,1.30
2022-10-20T02:51:08.694Z,1.55
2022-10-20T02:54:13.968Z,1.33
2022-10-20T02:57:21.530Z,1.75
2022-10-20T03:00:29.655Z,1.73
2022-10-20T03:03:34.653Z,1.55
2022-10-20T03:06:39.885Z,1.42
2022-10-20T03:09:44.891Z,1.70
2022-10-20T03:12:52.806Z,1.50
2022-10-20T03:15:57.753Z,1.65
2022-10-20T03:19:05.323Z,1.92
2022-10-20T03:22:12.332Z,2.28
2022-10-20T03:25:17.644Z,1.70
2022-10-20T03:28:25.198Z,2.75
2022-10-20T03:31:30.540Z,1.90
2022-10-20T03:34:35.502Z,1.40
2022-10-20T03:37:40.862Z,1.17
2022-10-20T03:40:45.811Z,1.60
2022-10-20T03:43:53.786Z,1.60
2022-10-20T03:47:00.242Z,1.50
2022-10-20T03:53:30.961Z,1.55
2022-10-20T03:56:36.225Z,1.58
2022-10-20T03:59:43.917Z,1.50
2022-10-20T04:02:49.337Z,1.15
2022-10-20T04:05:54.248Z,1.30
2022-10-20T04:09:02.947Z,1.40
2022-10-20T04:12:08.002Z,1.33
2022-10-20T04:15:15.896Z,1.42
2022-10-20T04:18:20.800Z,1.20
2022-10-20T04:21:26.592Z,1.15
2022-10-20T04:24:32.647Z,1.40
2022-10-20T04:27:39.326Z,1.38
2022-10-20T04:30:47.164Z,1.20
2022-10-20T04:33:57.857Z,1.20
2022-10-20T04:37:04.877Z,1.00
2022-10-20T04:40:12.936Z,1.15
2022-10-20T04:43:18.128Z,1.35
2022-10-20T04:46:26.830Z,1.17
2022-10-20T04:49:31.862Z,1.30
2022-10-20T04:52:37.234Z,1.30
2022-10-20T04:55:44.528Z,1.20
2022-10-20T04:58:50.740Z,1.60
2022-10-20T05:01:58.664Z,1.67
2022-10-20T05:05:05.078Z,1.15
2022-10-20T05:08:10.144Z,1.45
2022-10-20T05:11:17.158Z,1.00
2022-10-20T05:14:22.665Z,1.40
2022-10-20T05:17:31.707Z,1.30
2022-10-20T05:20:41.228Z,1.60
2022-10-20T05:23:51.469Z,1.80
2022-10-20T05:26:57.294Z,1.40
2022-10-20T05:30:03.307Z,1.45
2022-10-20T05:33:10.971Z,1.75
2022-10-20T05:36:19.403Z,1.65
2022-10-20T05:39:27.042Z,1.52
2022-10-20T05:42:32.625Z,1.30
2022-10-20T05:45:37.613Z,1.42
2022-10-20T05:48:45.943Z,1.45
2022-10-20T05:51:51.271Z,1.90
2022-10-20T05:54:56.819Z,1.30
2022-10-20T05:58:01.754Z,1.20
2022-10-20T06:01:07.945Z,1.55
2022-10-20T06:04:15.478Z,1.70
2022-10-20T06:07:20.752Z,1.52
2022-10-20T06:10:26.738Z,1.50
2022-10-20T06:13:32.083Z,1.73
2022-10-20T06:16:37.535Z,1.45
2022-10-20T06:19:47.940Z,1.80
2022-10-20T06:22:53.915Z,1.40
2022-10-20T06:26:07.662Z,1.50
2022-10-20T06:29:19.523Z,1.80
2022-10-20T06:32:27.059Z,1.77
2022-10-20T06:35:36.623Z,1.80
2022-10-20T06:38:42.077Z,2.13
2022-10-20T06:41:50.686Z,2.17
2022-10-20T06:44:56.069Z,1.50
2022-10-20T06:48:01.017Z,1.90
2022-10-20T06:51:09.743Z,1.98
2022-10-20T06:54:14.707Z,1.83
2022-10-20T06:57:20.134Z,1.30
2022-10-20T07:00:25.209Z,1.30
2022-10-20T07:03:30.722Z,1.83
2022-10-20T07:06:39.189Z,1.70
2022-10-20T07:09:46.723Z,2.08
2022-10-20T07:12:51.754Z,1.60
2022-10-20T07:15:57.558Z,1.65
2022-10-20T07:19:02.836Z,1.60
2022-10-20T07:22:12.322Z,1.25
2022-10-20T07:25:17.634Z,1.48
2022-10-20T07:28:24.142Z,1.50
2022-10-20T07:31:29.946Z,1.38
2022-10-20T07:34:35.349Z,1.40
2022-10-20T07:37:43.111Z,1.10
2022-10-20T07:40:49.031Z,1.33
2022-10-20T07:43:54.002Z,1.35
2022-10-20T07:46:59.256Z,1.42
2022-10-20T07:50:04.230Z,1.20
2022-10-20T07:53:12.428Z,1.10
2022-10-20T07:56:18.215Z,1.30
2022-10-20T07:59:25.356Z,1.30
2022-10-20T08:02:30.378Z,1.20
2022-10-20T08:05:35.614Z,1.35
2022-10-20T08:08:43.268Z,1.30
2022-10-20T08:11:52.771Z,1.25
2022-10-20T08:15:00.393Z,1.50
2022-10-20T08:18:08.539Z,1.40
2022-10-20T08:21:15.355Z,1.33
2022-10-20T08:24:24.840Z,1.10
2022-10-20T08:27:29.757Z,1.15
2022-10-20T08:30:35.430Z,1.30
2022-10-20T08:33:43.668Z,1.20
2022-10-20T08:36:49.086Z,1.02
2022-10-20T08:39:56.775Z,0.90
2022-10-20T08:43:02.082Z,0.90
2022-10-20T08:46:07.613Z,1.10
2022-10-20T08:49:23.148Z,1.27
2022-10-20T08:52:31.297Z,1.20
2022-10-20T08:55:47.256Z,1.30
2022-10-20T08:58:52.333Z,1.10
2022-10-20T09:01:58.405Z,1.23
2022-10-20T09:05:06.918Z,0.93
2022-10-20T09:08:12.187Z,1.10
2022-10-20T09:11:21.827Z,1.08
2022-10-20T09:14:27.195Z,1.05
2022-10-20T09:17:34.396Z,1.60
2022-10-20T09:20:44.526Z,1.20
2022-10-20T09:23:52.504Z,1.10
2022-10-20T09:27:00.584Z,1.30
2022-10-20T09:30:16.561Z,1.00
2022-10-20T09:33:26.126Z,1.00
2022-10-20T09:36:33.151Z,1.00
2022-10-20T09:39:45.134Z,1.45
2022-10-20T09:42:55.770Z,1.13
2022-10-20T09:46:06.975Z,1.10
2022-10-20T09:49:25.539Z,0.98
2022-10-20T09:52:35.015Z,0.80
2022-10-20T09:55:42.897Z,0.85
2022-10-20T09:58:50.853Z,0.77
2022-10-20T10:01:58.588Z,0.70
2022-10-20T10:05:19.154Z,0.63
2022-10-20T10:08:25.168Z,0.70
2022-10-20T10:11:32.779Z,0.82
2022-10-20T10:14:40.812Z,0.70
2022-10-20T10:17:47.906Z,0.90
2022-10-20T10:20:59.758Z,0.90
2022-10-20T10:24:06.820Z,0.85
2022-10-20T10:27:28.281Z,0.82
2022-10-20T10:30:37.410Z,1.13
2022-10-20T10:33:42.298Z,1.10
2022-10-20T10:36:47.612Z,1.42
2022-10-20T10:39:54.741Z,0.95
2022-10-20T10:43:09.092Z,1.05
2022-10-20T10:46:26.492Z,1.23
2022-10-20T10:49:47.111Z,1.20
2022-10-20T10:52:55.994Z,0.98
2022-10-20T10:59:42.073Z,0.98
2022-10-20T11:03:02.879Z,1.08
2022-10-20T11:06:11.971Z,1.00
2022-10-20T11:09:24.539Z,0.90
2022-10-20T11:12:41.130Z,0.80
2022-10-20T11:15:54.686Z,0.82
2022-10-20T11:19:15.310Z,1.10
2022-10-20T11:22:23.956Z,0.70
2022-10-20T11:25:32.890Z,1.02
2022-10-20T11:28:44.445Z,0.90
2022-10-20T11:31:51.714Z,0.98
2022-10-20T11:35:04.711Z,1.05
2022-10-20T11:38:19.050Z,0.90
2022-10-20T11:41:26.916Z,1.00
2022-10-20T11:44:37.548Z,1.05
2022-10-20T11:47:44.663Z,1.00
2022-10-20T11:50:58.928Z,1.00
2022-10-20T11:54:16.876Z,1.20
2022-10-20T11:57:29.150Z,1.10
2022-10-20T12:00:46.107Z,0.80
2022-10-20T12:04:00.117Z,0.80
2022-10-20T12:07:32.681Z,0.90
2022-10-20T12:10:41.137Z,1.02
2022-10-20T12:13:51.070Z,0.70
2022-10-20T12:17:23.862Z,0.75
2022-10-20T12:20:43.865Z,1.00
2022-10-20T12:24:07.595Z,1.00
2022-10-20T12:27:23.883Z,0.70
2022-10-20T12:30:43.748Z,0.80
2022-10-20T12:34:07.658Z,0.80
2022-10-20T12:37:19.849Z,0.70
2022-10-20T12:40:33.256Z,0.70
2022-10-20T12:43:50.513Z,0.80
2022-10-20T12:46:56.727Z,0.80
2022-10-20T12:50:03.895Z,0.70
2022-10-20T12:53:13.764Z,0.60
2022-10-20T12:56:23.783Z,0.60
2022-10-20T12:59:47.813Z,0.68
2022-10-20T13:02:57.573Z,0.70
2022-10-20T13:06:03.498Z,0.70
2022-10-20T13:09:36.882Z,0.70
2022-10-20T13:12:49.305Z,0.80
2022-10-20T13:15:55.547Z,0.73
2022-10-20T13:19:03.908Z,0.60
2022-10-20T13:22:23.744Z,0.70
2022-10-20T13:25:40.076Z,0.77
2022-10-20T13:28:49.858Z,0.80
2022-10-20T13:32:04.261Z,0.45
2022-10-20T13:35:15.284Z,0.63
2022-10-20T13:38:22.877Z,0.82
2022-10-20T13:41:31.164Z,0.80
2022-10-20T13:44:42.804Z,0.60
2022-10-20T13:47:52.427Z,0.88
2022-10-20T13:50:59.965Z,0.60
2022-10-20T13:54:06.456Z,0.82
2022-10-20T13:57:11.717Z,0.60
2022-10-20T14:00:24.159Z,0.90
2022-10-20T14:03:29.387Z,0.70
2022-10-20T14:06:40.403Z,0.82
2022-10-20T14:09:51.445Z,0.80
2022-10-20T14:12:58.236Z,0.60
2022-10-20T14:16:07.781Z,0.80
2022-10-20T14:19:14.746Z,0.77
2022-10-20T14:22:23.158Z,0.88
2022-10-20T14:25:28.485Z,1.05
2022-10-20T14:32:18.932Z,0.80
2022-10-20T14:35:33.268Z,0.80
2022-10-20T14:38:39.277Z,0.90
2022-10-20T14:41:46.071Z,1.10
2022-10-20T14:44:52.173Z,0.82
2022-10-20T14:48:01.168Z,1.15
2022-10-20T14:51:26.585Z,1.42
2022-10-20T14:54:37.466Z,1.05
2022-10-20T14:57:47.342Z,0.90
2022-10-20T15:00:52.761Z,1.20
2022-10-20T15:04:18.426Z,0.82
2022-10-20T15:07:25.192Z,1.02
2022-10-20T15:10:33.602Z,0.93
2022-10-20T15:13:39.327Z,1.13
2022-10-20T15:16:47.125Z,0.85
2022-10-20T15:19:55.135Z,1.20
2022-10-20T15:23:04.385Z,1.00
2022-10-20T15:26:13.292Z,1.35
2022-10-20T15:29:18.283Z,0.70
2022-10-20T15:32:23.906Z,1.00
2022-10-20T15:35:34.133Z,1.15
2022-10-20T15:38:39.458Z,1.10
2022-10-20T15:41:44.378Z,1.17
2022-10-20T15:44:49.589Z,1.00
2022-10-20T15:47:54.464Z,1.33
2022-10-20T15:51:02.359Z,1.02
2022-10-20T15:54:07.415Z,1.20
2022-10-20T15:57:12.899Z,2.00
2022-10-20T16:00:18.270Z,1.65
2022-10-20T16:03:24.584Z,1.70
2022-10-20T16:06:32.235Z,2.13
2022-10-20T16:09:37.471Z,2.30
2022-10-20T16:12:42.747Z,1.30
2022-10-20T16:15:47.967Z,1.30
2022-10-20T16:18:52.849Z,1.48
2022-10-20T16:22:00.702Z,1.80
2022-10-20T16:25:05.872Z,1.20
2022-10-20T16:28:11.482Z,1.50
2022-10-20T16:31:17.765Z,1.42
2022-10-20T16:34:22.967Z,1.75
2022-10-20T16:37:30.567Z,2.08
2022-10-20T16:40:38.300Z,1.50
2022-10-20T16:43:44.204Z,1.90
2022-10-20T16:46:49.441Z,1.70
2022-10-20T16:49:54.594Z,2.20
2022-10-20T16:53:02.385Z,2.40
2022-10-20T16:56:07.454Z,2.17
2022-10-20T16:59:12.659Z,2.67
2022-10-20T17:02:17.559Z,2.47
2022-10-20T17:05:26.514Z,2.17
2022-10-20T17:08:34.735Z,2.90
2022-10-20T17:11:39.965Z,2.35
2022-10-20T17:14:46.007Z,1.90
2022-10-20T17:17:51.210Z,2.35
2022-10-20T17:20:56.285Z,2.25
2022-10-20T17:24:04.791Z,2.47
2022-10-20T17:27:09.774Z,2.58
2022-10-20T17:30:15.125Z,2.63
2022-10-20T17:33:20.073Z,2.50
2022-10-20T17:36:26.282Z,3.10
2022-10-20T17:39:33.844Z,3.83
2022-10-20T17:42:39.605Z,3.50
2022-10-20T17:45:44.735Z,3.92
2022-10-20T17:48:50.359Z,3.20
2022-10-20T17:51:55.254Z,3.80
2022-10-20T17:55:03.195Z,3.50
2022-10-20T17:58:08.203Z,3.53
2022-10-20T18:01:14.264Z,3.60
2022-10-20T18:04:19.880Z,3.35
2022-10-20T18:07:25.169Z,3.20
2022-10-20T18:10:32.863Z,3.33
2022-10-20T18:13:38.582Z,3.17
2022-10-20T18:16:44.151Z,3.17
2022-10-20T18:19:55.354Z,3.20
2022-10-20T18:23:00.321Z,3.30
2022-10-20T18:26:13.197Z,3.45
2022-10-20T18:29:19.724Z,3.70
2022-10-20T18:32:25.247Z,3.85
2022-10-20T18:35:32.898Z,3.70
2022-10-20T18:38:38.827Z,3.75
2022-10-20T18:41:49.902Z,3.67
2022-10-20T18:44:55.198Z,4.72
2022-10-20T18:48:00.730Z,3.95
2022-10-20T18:51:06.898Z,3.85
2022-10-20T18:54:11.793Z,3.72
2022-10-20T18:57:21.827Z,4.43
2022-10-20T19:00:28.776Z,4.03
2022-10-20T19:03:35.522Z,3.83
2022-10-20T19:06:42.212Z,4.45
2022-10-20T19:09:55.604Z,4.28
2022-10-20T19:13:17.896Z,3.90
2022-10-20T19:16:46.492Z,4.32
2022-10-20T19:20:11.535Z,3.97
2022-10-20T19:23:30.729Z,3.85
2022-10-20T19:27:02.075Z,3.72
2022-10-20T19:38:15.712Z,4.03
2022-10-20T19:41:39.909Z,4.20
2022-10-20T19:45:05.571Z,3.55
2022-10-20T19:48:17.984Z,4.13
2022-10-20T19:51:42.595Z,3.92
2022-10-20T19:55:13.697Z,3.85
2022-10-20T19:58:24.953Z,3.10
2022-10-20T20:01:30.559Z,3.60
2022-10-20T20:04:39.030Z,4.03
2022-10-20T20:07:45.491Z,4.28
2022-10-20T20:10:57.517Z,3.28
2022-10-20T20:14:09.278Z,4.00
2022-10-20T20:17:18.980Z,4.35
2022-10-20T20:20:28.737Z,4.32
2022-10-20T20:23:57.895Z,3.47
2022-10-20T20:35:15.574Z,3.50
2022-10-20T20:38:37.386Z,4.28
2022-10-20T20:41:56.650Z,4.15
2022-10-20T20:45:19.951Z,4.20
2022-10-20T20:48:28.697Z,4.47
2022-10-20T20:51:35.379Z,3.75
2022-10-20T20:54:50.915Z,4.25
2022-10-20T20:58:05.276Z,4.60
2022-10-20T21:01:34.571Z,4.88
2022-10-20T21:04:39.992Z,5.20
2022-10-20T21:11:33.013Z,5.00
2022-10-20T21:14:40.623Z,4.80
2022-10-20T21:18:02.802Z,5.07
2022-10-20T21:21:16.231Z,5.00
2022-10-20T21:24:33.441Z,4.45
2022-10-20T21:27:48.609Z,5.07
2022-10-20T21:31:01.853Z,4.70
2022-10-20T21:34:22.586Z,4.40
2022-10-20T21:37:33.910Z,4.85
2022-10-20T21:44:58.193Z,5.03
2022-10-20T21:48:11.074Z,4.05
2022-10-20T21:51:26.525Z,4.55
2022-10-20T21:54:32.742Z,5.60
2022-10-20T21:57:39.078Z,3.65
2022-10-20T22:04:51.934Z,3.80
2022-10-20T22:07:59.871Z,3.28
2022-10-20T22:11:05.491Z,4.00
2022-10-20T22:14:33.598Z,3.72
2022-10-20T22:17:38.930Z,4.30
2022-10-20T22:20:48.087Z,4.18
2022-10-20T22:24:13.693Z,4.43
2022-10-20T22:27:31.388Z,3.95
2022-10-20T22:30:51.246Z,4.63
2022-10-20T22:34:06.736Z,3.88
2022-10-20T22:44:05.521Z,3.88
2022-10-20T22:47:21.072Z,3.58
2022-10-20T22:50:25.921Z,3.17
2022-10-20T22:53:32.734Z,3.83
2022-10-20T22:56:40.223Z,3.58
2022-10-20T22:59:45.471Z,3.38
2022-10-20T23:06:36.971Z,3.45
2022-10-20T23:09:43.616Z,3.72
2022-10-20T23:13:03.866Z,3.60
2022-10-20T23:16:09.187Z,3.92
2022-10-20T23:52:00.674Z,3.72
